sensor_id;sensor_type;location;lat;lon;timestamp;pressure;altitude;pressure_sealevel;temperature;humidity
76137;BME280;68622;53.128;17.966;2024-03-08T00:02:24;102316.40;;;-0.40;69.37
76137;BME280;68622;53.128;17.966;2024-03-08T00:04:50;102314.08;;;-0.43;69.36
76137;BME280;68622;53.128;17.966;2024-03-08T00:07:17;102310.25;;;-0.48;70.08
76137;BME280;68622;53.128;17.966;2024-03-08T00:09:44;102307.02;;;-0.49;69.90
76137;BME280;68622;53.128;17.966;2024-03-08T00:12:10;102307.26;;;-0.53;69.86
76137;BME280;68622;53.128;17.966;2024-03-08T00:14:37;102307.30;;;-0.55;70.02
76137;BME280;68622;53.128;17.966;2024-03-08T00:17:04;102306.10;;;-0.55;69.62
76137;BME280;68622;53.128;17.966;2024-03-08T00:19:30;102302.70;;;-0.56;69.80
76137;BME280;68622;53.128;17.966;2024-03-08T00:21:57;102305.79;;;-0.57;69.76
76137;BME280;68622;53.128;17.966;2024-03-08T00:24:23;102303.95;;;-0.59;70.01
76137;BME280;68622;53.128;17.966;2024-03-08T00:26:51;102309.09;;;-0.60;70.12
76137;BME280;68622;53.128;17.966;2024-03-08T00:29:20;102310.84;;;-0.63;70.12
76137;BME280;68622;53.128;17.966;2024-03-08T00:31:46;102309.16;;;-0.65;70.20
76137;BME280;68622;53.128;17.966;2024-03-08T00:34:13;102310.41;;;-0.68;70.33
76137;BME280;68622;53.128;17.966;2024-03-08T00:36:39;102300.89;;;-0.69;70.10
76137;BME280;68622;53.128;17.966;2024-03-08T00:39:06;102304.63;;;-0.68;69.73
76137;BME280;68622;53.128;17.966;2024-03-08T00:41:33;102300.39;;;-0.70;70.09
76137;BME280;68622;53.128;17.966;2024-03-08T00:43:59;102298.71;;;-0.72;70.02
76137;BME280;68622;53.128;17.966;2024-03-08T00:46:26;102302.66;;;-0.74;70.20
76137;BME280;68622;53.128;17.966;2024-03-08T00:48:55;102297.61;;;-0.78;70.05
76137;BME280;68622;53.128;17.966;2024-03-08T00:51:22;102296.98;;;-0.81;70.07
76137;BME280;68622;53.128;17.966;2024-03-08T00:53:49;102296.82;;;-0.82;70.15
76137;BME280;68622;53.128;17.966;2024-03-08T00:56:16;102296.48;;;-0.82;70.08
76137;BME280;68622;53.128;17.966;2024-03-08T00:58:42;102298.87;;;-0.83;70.06
76137;BME280;68622;53.128;17.966;2024-03-08T01:01:09;102295.87;;;-0.86;70.29
76137;BME280;68622;53.128;17.966;2024-03-08T01:03:36;102293.35;;;-0.89;70.49
76137;BME280;68622;53.128;17.966;2024-03-08T01:06:02;102290.14;;;-0.91;70.40
76137;BME280;68622;53.128;17.966;2024-03-08T01:08:29;102289.88;;;-0.95;70.58
76137;BME280;68622;53.128;17.966;2024-03-08T01:10:56;102285.97;;;-0.95;70.75
76137;BME280;68622;53.128;17.966;2024-03-08T01:13:22;102285.96;;;-0.95;70.42
76137;BME280;68622;53.128;17.966;2024-03-08T01:15:49;102284.44;;;-0.96;70.77
76137;BME280;68622;53.128;17.966;2024-03-08T01:18:16;102284.95;;;-0.96;70.57
76137;BME280;68622;53.128;17.966;2024-03-08T01:20:43;102279.85;;;-0.96;70.76
76137;BME280;68622;53.128;17.966;2024-03-08T01:23:09;102276.63;;;-0.99;71.00
76137;BME280;68622;53.128;17.966;2024-03-08T01:25:36;102273.79;;;-1.01;70.73
76137;BME280;68622;53.128;17.966;2024-03-08T01:28:03;102276.21;;;-1.03;70.77
76137;BME280;68622;53.128;17.966;2024-03-08T01:30:29;102275.20;;;-1.04;70.47
76137;BME280;68622;53.128;17.966;2024-03-08T01:32:56;102270.09;;;-1.03;70.62
76137;BME280;68622;53.128;17.966;2024-03-08T01:35:23;102267.89;;;-1.05;70.29
76137;BME280;68622;53.128;17.966;2024-03-08T01:37:49;102267.28;;;-1.09;70.62
76137;BME280;68622;53.128;17.966;2024-03-08T01:40:17;102267.98;;;-1.11;70.82
76137;BME280;68622;53.128;17.966;2024-03-08T01:42:43;102266.14;;;-1.13;71.30
76137;BME280;68622;53.128;17.966;2024-03-08T01:45:11;102268.54;;;-1.15;71.08
76137;BME280;68622;53.128;17.966;2024-03-08T01:47:37;102265.20;;;-1.18;70.94
76137;BME280;68622;53.128;17.966;2024-03-08T01:50:04;102264.50;;;-1.17;70.82
76137;BME280;68622;53.128;17.966;2024-03-08T01:52:33;102260.73;;;-1.17;70.74
76137;BME280;68622;53.128;17.966;2024-03-08T01:55:01;102256.15;;;-1.17;71.12
76137;BME280;68622;53.128;17.966;2024-03-08T01:57:31;102256.02;;;-1.19;70.99
76137;BME280;68622;53.128;17.966;2024-03-08T02:00:01;102256.55;;;-1.22;71.05
76137;BME280;68622;53.128;17.966;2024-03-08T02:02:35;102254.74;;;-1.26;71.44
76137;BME280;68622;53.128;17.966;2024-03-08T02:05:04;102255.48;;;-1.29;71.19
76137;BME280;68622;53.128;17.966;2024-03-08T02:07:31;102252.59;;;-1.30;71.15
76137;BME280;68622;53.128;17.966;2024-03-08T02:09:58;102253.95;;;-1.30;70.99
76137;BME280;68622;53.128;17.966;2024-03-08T02:12:24;102250.90;;;-1.31;71.12
76137;BME280;68622;53.128;17.966;2024-03-08T02:14:51;102250.91;;;-1.32;71.00
76137;BME280;68622;53.128;17.966;2024-03-08T02:17:17;102250.63;;;-1.35;71.41
76137;BME280;68622;53.128;17.966;2024-03-08T02:19:44;102247.61;;;-1.39;71.52
76137;BME280;68622;53.128;17.966;2024-03-08T02:22:10;102243.75;;;-1.42;71.51
76137;BME280;68622;53.128;17.966;2024-03-08T02:24:38;102239.70;;;-1.44;71.51
76137;BME280;68622;53.128;17.966;2024-03-08T02:27:05;102241.70;;;-1.42;71.62
76137;BME280;68622;53.128;17.966;2024-03-08T02:29:32;102235.89;;;-1.41;71.50
76137;BME280;68622;53.128;17.966;2024-03-08T02:32:00;102232.98;;;-1.40;71.24
76137;BME280;68622;53.128;17.966;2024-03-08T02:34:26;102234.48;;;-1.37;71.17
76137;BME280;68622;53.128;17.966;2024-03-08T02:36:53;102232.30;;;-1.38;71.29
76137;BME280;68622;53.128;17.966;2024-03-08T02:39:20;102228.59;;;-1.41;71.14
76137;BME280;68622;53.128;17.966;2024-03-08T02:41:46;102229.34;;;-1.45;71.17
76137;BME280;68622;53.128;17.966;2024-03-08T02:44:13;102229.35;;;-1.47;71.14
76137;BME280;68622;53.128;17.966;2024-03-08T02:46:41;102228.68;;;-1.48;70.92
76137;BME280;68622;53.128;17.966;2024-03-08T02:49:07;102229.02;;;-1.47;70.87
76137;BME280;68622;53.128;17.966;2024-03-08T02:51:34;102230.53;;;-1.46;70.94
76137;BME280;68622;53.128;17.966;2024-03-08T02:54:02;102232.23;;;-1.45;71.37
76137;BME280;68622;53.128;17.966;2024-03-08T02:56:30;102234.44;;;-1.45;71.40
76137;BME280;68622;53.128;17.966;2024-03-08T02:58:57;102233.41;;;-1.45;71.54
76137;BME280;68622;53.128;17.966;2024-03-08T03:01:23;102228.81;;;-1.44;71.44
76137;BME280;68622;53.128;17.966;2024-03-08T03:03:50;102229.85;;;-1.47;71.33
76137;BME280;68622;53.128;17.966;2024-03-08T03:06:16;102226.65;;;-1.48;70.94
76137;BME280;68622;53.128;17.966;2024-03-08T03:08:47;102224.11;;;-1.50;71.05
76137;BME280;68622;53.128;17.966;2024-03-08T03:11:14;102221.10;;;-1.52;71.14
76137;BME280;68622;53.128;17.966;2024-03-08T03:13:40;102221.80;;;-1.55;71.19
76137;BME280;68622;53.128;17.966;2024-03-08T03:16:08;102223.02;;;-1.57;71.07
76137;BME280;68622;53.128;17.966;2024-03-08T03:18:36;102218.63;;;-1.59;71.21
76137;BME280;68622;53.128;17.966;2024-03-08T03:21:03;102215.92;;;-1.60;71.06
76137;BME280;68622;53.128;17.966;2024-03-08T03:23:33;102215.10;;;-1.62;71.39
76137;BME280;68622;53.128;17.966;2024-03-08T03:26:01;102212.89;;;-1.62;71.02
76137;BME280;68622;53.128;17.966;2024-03-08T03:28:28;102216.46;;;-1.62;71.02
76137;BME280;68622;53.128;17.966;2024-03-08T03:30:55;102211.70;;;-1.62;71.16
76137;BME280;68622;53.128;17.966;2024-03-08T03:33:25;102215.77;;;-1.61;71.10
76137;BME280;68622;53.128;17.966;2024-03-08T03:35:52;102212.91;;;-1.64;71.33
76137;BME280;68622;53.128;17.966;2024-03-08T03:38:18;102217.17;;;-1.65;71.49
76137;BME280;68622;53.128;17.966;2024-03-08T03:40:47;102218.70;;;-1.65;71.61
76137;BME280;68622;53.128;17.966;2024-03-08T03:43:15;102219.73;;;-1.66;71.33
76137;BME280;68622;53.128;17.966;2024-03-08T03:45:41;102215.84;;;-1.67;71.70
76137;BME280;68622;53.128;17.966;2024-03-08T03:48:08;102213.08;;;-1.63;71.52
76137;BME280;68622;53.128;17.966;2024-03-08T03:50:38;102211.36;;;-1.62;71.52
76137;BME280;68622;53.128;17.966;2024-03-08T03:53:05;102210.32;;;-1.60;71.38
76137;BME280;68622;53.128;17.966;2024-03-08T03:55:37;102207.77;;;-1.60;71.38
76137;BME280;68622;53.128;17.966;2024-03-08T03:58:04;102208.93;;;-1.59;71.65
76137;BME280;68622;53.128;17.966;2024-03-08T04:00:31;102205.20;;;-1.60;71.37
76137;BME280;68622;53.128;17.966;2024-03-08T04:02:58;102207.79;;;-1.63;71.31
76137;BME280;68622;53.128;17.966;2024-03-08T04:05:27;102208.99;;;-1.63;71.07
76137;BME280;68622;53.128;17.966;2024-03-08T04:07:53;102208.13;;;-1.63;71.01
76137;BME280;68622;53.128;17.966;2024-03-08T04:10:20;102205.75;;;-1.63;71.05
76137;BME280;68622;53.128;17.966;2024-03-08T04:12:47;102204.38;;;-1.61;71.17
76137;BME280;68622;53.128;17.966;2024-03-08T04:15:14;102203.70;;;-1.61;71.58
76137;BME280;68622;53.128;17.966;2024-03-08T04:17:41;102204.20;;;-1.61;71.87
76137;BME280;68622;53.128;17.966;2024-03-08T04:20:08;102199.98;;;-1.64;71.64
76137;BME280;68622;53.128;17.966;2024-03-08T04:22:37;102204.08;;;-1.65;71.99
76137;BME280;68622;53.128;17.966;2024-03-08T04:25:04;102204.25;;;-1.65;71.59
76137;BME280;68622;53.128;17.966;2024-03-08T04:27:32;102202.85;;;-1.62;71.84
76137;BME280;68622;53.128;17.966;2024-03-08T04:29:59;102200.46;;;-1.61;71.81
76137;BME280;68622;53.128;17.966;2024-03-08T04:32:26;102197.93;;;-1.63;71.77
76137;BME280;68622;53.128;17.966;2024-03-08T04:34:52;102196.57;;;-1.63;71.88
76137;BME280;68622;53.128;17.966;2024-03-08T04:37:19;102197.61;;;-1.65;71.88
76137;BME280;68622;53.128;17.966;2024-03-08T04:39:48;102193.75;;;-1.68;71.63
76137;BME280;68622;53.128;17.966;2024-03-08T04:42:15;102195.20;;;-1.75;71.51
76137;BME280;68622;53.128;17.966;2024-03-08T04:44:42;102195.93;;;-1.78;71.86
76137;BME280;68622;53.128;17.966;2024-03-08T04:47:09;102193.56;;;-1.80;71.36
76137;BME280;68622;53.128;17.966;2024-03-08T04:49:37;102193.21;;;-1.79;71.58
76137;BME280;68622;53.128;17.966;2024-03-08T04:52:04;102188.80;;;-1.80;71.70
76137;BME280;68622;53.128;17.966;2024-03-08T04:54:31;102189.84;;;-1.81;71.53
76137;BME280;68622;53.128;17.966;2024-03-08T04:56:58;102190.02;;;-1.82;71.35
76137;BME280;68622;53.128;17.966;2024-03-08T04:59:27;102183.71;;;-1.81;71.78
76137;BME280;68622;53.128;17.966;2024-03-08T05:01:54;102189.50;;;-1.81;71.62
76137;BME280;68622;53.128;17.966;2024-03-08T05:04:21;102186.29;;;-1.83;71.64
76137;BME280;68622;53.128;17.966;2024-03-08T05:06:48;102187.30;;;-1.82;71.32
76137;BME280;68622;53.128;17.966;2024-03-08T05:09:15;102187.80;;;-1.81;71.28
76137;BME280;68622;53.128;17.966;2024-03-08T05:11:43;102186.94;;;-1.80;71.42
76137;BME280;68622;53.128;17.966;2024-03-08T05:14:13;102186.27;;;-1.80;71.38
76137;BME280;68622;53.128;17.966;2024-03-08T05:16:44;102187.45;;;-1.81;71.65
76137;BME280;68622;53.128;17.966;2024-03-08T05:19:15;102188.81;;;-1.81;71.38
76137;BME280;68622;53.128;17.966;2024-03-08T05:21:44;102189.15;;;-1.81;71.57
76137;BME280;68622;53.128;17.966;2024-03-08T05:24:11;102185.73;;;-1.80;70.95
76137;BME280;68622;53.128;17.966;2024-03-08T05:26:38;102189.96;;;-1.77;71.30
76137;BME280;68622;53.128;17.966;2024-03-08T05:29:05;102191.98;;;-1.76;71.61
76137;BME280;68622;53.128;17.966;2024-03-08T05:31:51;102192.83;;;-1.75;71.55
76137;BME280;68622;53.128;17.966;2024-03-08T05:34:21;102188.25;;;-1.76;71.39
76137;BME280;68622;53.128;17.966;2024-03-08T05:36:48;102187.40;;;-1.76;71.41
76137;BME280;68622;53.128;17.966;2024-03-08T05:39:20;102184.30;;;-1.74;71.51
76137;BME280;68622;53.128;17.966;2024-03-08T05:41:47;102187.84;;;-1.71;71.50
76137;BME280;68622;53.128;17.966;2024-03-08T05:44:14;102187.77;;;-1.66;71.39
76137;BME280;68622;53.128;17.966;2024-03-08T05:46:40;102186.86;;;-1.62;71.11
76137;BME280;68622;53.128;17.966;2024-03-08T05:49:07;102186.84;;;-1.60;71.65
76137;BME280;68622;53.128;17.966;2024-03-08T05:51:37;102183.56;;;-1.58;71.62
76137;BME280;68622;53.128;17.966;2024-03-08T05:54:06;102184.73;;;-1.56;71.49
76137;BME280;68622;53.128;17.966;2024-03-08T05:56:33;102185.71;;;-1.53;71.47
76137;BME280;68622;53.128;17.966;2024-03-08T05:59:00;102188.02;;;-1.48;71.49
76137;BME280;68622;53.128;17.966;2024-03-08T06:01:27;102186.09;;;-1.44;71.17
76137;BME280;68622;53.128;17.966;2024-03-08T06:03:55;102191.24;;;-1.37;71.58
76137;BME280;68622;53.128;17.966;2024-03-08T06:06:24;102188.58;;;-1.29;71.79
76137;BME280;68622;53.128;17.966;2024-03-08T06:08:52;102187.61;;;-1.21;71.96
76137;BME280;68622;53.128;17.966;2024-03-08T06:11:19;102188.16;;;-1.13;71.79
76137;BME280;68622;53.128;17.966;2024-03-08T06:13:47;102187.84;;;-1.04;71.60
76137;BME280;68622;53.128;17.966;2024-03-08T06:16:14;102188.42;;;-0.98;71.29
76137;BME280;68622;53.128;17.966;2024-03-08T06:18:41;102193.27;;;-0.93;71.50
76137;BME280;68622;53.128;17.966;2024-03-08T06:21:09;102190.78;;;-0.86;71.43
76137;BME280;68622;53.128;17.966;2024-03-08T06:23:38;102189.44;;;-0.78;71.16
76137;BME280;68622;53.128;17.966;2024-03-08T06:26:05;102188.42;;;-0.69;71.15
76137;BME280;68622;53.128;17.966;2024-03-08T06:28:32;102187.30;;;-0.63;71.29
76137;BME280;68622;53.128;17.966;2024-03-08T06:31:02;102186.16;;;-0.57;71.19
76137;BME280;68622;53.128;17.966;2024-03-08T06:33:30;102186.19;;;-0.50;71.24
76137;BME280;68622;53.128;17.966;2024-03-08T06:35:58;102189.48;;;-0.43;71.38
76137;BME280;68622;53.128;17.966;2024-03-08T06:38:26;102188.09;;;-0.33;71.11
76137;BME280;68622;53.128;17.966;2024-03-08T06:40:53;102182.83;;;-0.25;70.93
76137;BME280;68622;53.128;17.966;2024-03-08T06:43:21;102180.27;;;-0.17;70.75
76137;BME280;68622;53.128;17.966;2024-03-08T06:45:47;102182.29;;;-0.07;70.83
76137;BME280;68622;53.128;17.966;2024-03-08T06:48:17;102183.27;;;0.04;70.64
76137;BME280;68622;53.128;17.966;2024-03-08T06:50:45;102184.63;;;0.12;70.39
76137;BME280;68622;53.128;17.966;2024-03-08T06:53:12;102184.75;;;0.21;70.43
76137;BME280;68622;53.128;17.966;2024-03-08T06:55:40;102182.14;;;0.31;70.41
76137;BME280;68622;53.128;17.966;2024-03-08T06:58:06;102185.61;;;0.45;70.29
76137;BME280;68622;53.128;17.966;2024-03-08T07:00:33;102181.69;;;0.59;70.24
76137;BME280;68622;53.128;17.966;2024-03-08T07:03:00;102179.98;;;0.66;70.10
76137;BME280;68622;53.128;17.966;2024-03-08T07:05:30;102181.52;;;0.73;69.89
76137;BME280;68622;53.128;17.966;2024-03-08T07:07:59;102179.81;;;0.81;69.90
76137;BME280;68622;53.128;17.966;2024-03-08T07:10:26;102183.40;;;0.88;69.90
76137;BME280;68622;53.128;17.966;2024-03-08T07:12:53;102183.17;;;0.89;69.87
76137;BME280;68622;53.128;17.966;2024-03-08T07:15:20;102179.48;;;0.94;70.05
76137;BME280;68622;53.128;17.966;2024-03-08T07:17:47;102182.05;;;1.00;69.87
76137;BME280;68622;53.128;17.966;2024-03-08T07:20:14;102179.08;;;1.10;70.00
76137;BME280;68622;53.128;17.966;2024-03-08T07:22:46;102179.21;;;1.18;69.69
76137;BME280;68622;53.128;17.966;2024-03-08T07:25:17;102177.18;;;1.24;69.87
76137;BME280;68622;53.128;17.966;2024-03-08T07:27:54;102178.89;;;1.30;69.82
76137;BME280;68622;53.128;17.966;2024-03-08T07:30:23;102178.76;;;1.42;69.84
76137;BME280;68622;53.128;17.966;2024-03-08T07:33:10;102176.54;;;1.47;69.41
76137;BME280;68622;53.128;17.966;2024-03-08T07:35:40;102176.50;;;1.62;69.29
76137;BME280;68622;53.128;17.966;2024-03-08T07:38:08;102172.73;;;1.74;69.34
76137;BME280;68622;53.128;17.966;2024-03-08T07:40:37;102172.58;;;1.86;68.88
76137;BME280;68622;53.128;17.966;2024-03-08T07:43:08;102168.35;;;1.96;68.76
76137;BME280;68622;53.128;17.966;2024-03-08T07:45:34;102168.66;;;2.09;68.76
76137;BME280;68622;53.128;17.966;2024-03-08T07:48:02;102168.71;;;2.18;68.65
76137;BME280;68622;53.128;17.966;2024-03-08T07:50:29;102166.34;;;2.28;68.46
76137;BME280;68622;53.128;17.966;2024-03-08T07:52:56;102160.70;;;2.40;68.34
76137;BME280;68622;53.128;17.966;2024-03-08T07:55:22;102158.30;;;2.50;68.03
76137;BME280;68622;53.128;17.966;2024-03-08T07:57:50;102159.52;;;2.60;68.05
76137;BME280;68622;53.128;17.966;2024-03-08T08:00:17;102154.33;;;2.67;67.38
76137;BME280;68622;53.128;17.966;2024-03-08T08:02:45;102154.08;;;2.75;66.94
76137;BME280;68622;53.128;17.966;2024-03-08T08:05:12;102153.79;;;2.84;67.25
76137;BME280;68622;53.128;17.966;2024-03-08T08:07:40;102151.56;;;2.94;67.40
76137;BME280;68622;53.128;17.966;2024-03-08T08:10:10;102152.84;;;3.07;67.11
76137;BME280;68622;53.128;17.966;2024-03-08T08:12:43;102147.46;;;3.19;66.74
76137;BME280;68622;53.128;17.966;2024-03-08T08:15:10;102145.97;;;3.32;67.15
76137;BME280;68622;53.128;17.966;2024-03-08T08:17:37;102144.35;;;3.44;66.81
76137;BME280;68622;53.128;17.966;2024-03-08T08:20:05;102141.61;;;3.49;65.17
76137;BME280;68622;53.128;17.966;2024-03-08T08:22:32;102141.11;;;3.57;65.45
76137;BME280;68622;53.128;17.966;2024-03-08T08:24:58;102138.48;;;3.68;65.67
76137;BME280;68622;53.128;17.966;2024-03-08T08:27:25;102139.04;;;3.81;65.84
76137;BME280;68622;53.128;17.966;2024-03-08T08:29:52;102140.23;;;3.91;65.30
76137;BME280;68622;53.128;17.966;2024-03-08T08:32:19;102138.61;;;4.02;65.54
76137;BME280;68622;53.128;17.966;2024-03-08T08:34:46;102134.44;;;4.12;65.32
76137;BME280;68622;53.128;17.966;2024-03-08T08:37:13;102136.92;;;4.23;65.21
76137;BME280;68622;53.128;17.966;2024-03-08T08:39:39;102131.79;;;4.32;64.89
76137;BME280;68622;53.128;17.966;2024-03-08T08:42:06;102128.65;;;4.41;65.12
76137;BME280;68622;53.128;17.966;2024-03-08T08:44:35;102123.05;;;4.48;63.68
76137;BME280;68622;53.128;17.966;2024-03-08T08:47:02;102122.77;;;4.59;64.25
76137;BME280;68622;53.128;17.966;2024-03-08T08:49:30;102119.84;;;4.68;64.08
76137;BME280;68622;53.128;17.966;2024-03-08T08:51:57;102123.09;;;4.76;64.26
76137;BME280;68622;53.128;17.966;2024-03-08T08:54:27;102119.19;;;4.75;61.68
76137;BME280;68622;53.128;17.966;2024-03-08T08:56:54;102120.29;;;4.86;62.86
76137;BME280;68622;53.128;17.966;2024-03-08T08:59:20;102115.44;;;4.95;63.40
76137;BME280;68622;53.128;17.966;2024-03-08T09:01:49;102113.39;;;5.07;63.33
76137;BME280;68622;53.128;17.966;2024-03-08T09:04:16;102111.50;;;5.14;62.37
76137;BME280;68622;53.128;17.966;2024-03-08T09:06:43;102106.73;;;5.29;63.14
76137;BME280;68622;53.128;17.966;2024-03-08T09:09:11;102104.26;;;5.42;63.31
76137;BME280;68622;53.128;17.966;2024-03-08T09:11:39;102106.12;;;5.54;63.00
76137;BME280;68622;53.128;17.966;2024-03-08T09:14:09;102103.80;;;5.64;60.89
76137;BME280;68622;53.128;17.966;2024-03-08T09:16:38;102099.73;;;5.77;61.90
76137;BME280;68622;53.128;17.966;2024-03-08T09:19:04;102098.17;;;5.85;61.32
76137;BME280;68622;53.128;17.966;2024-03-08T09:21:33;102099.73;;;5.93;61.02
76137;BME280;68622;53.128;17.966;2024-03-08T09:24:01;102098.59;;;6.02;61.24
76137;BME280;68622;53.128;17.966;2024-03-08T09:26:28;102099.16;;;6.12;60.69
76137;BME280;68622;53.128;17.966;2024-03-08T09:28:54;102100.82;;;6.18;58.54
76137;BME280;68622;53.128;17.966;2024-03-08T09:31:21;102099.09;;;6.21;56.11
76137;BME280;68622;53.128;17.966;2024-03-08T09:33:48;102096.19;;;6.28;58.21
76137;BME280;68622;53.128;17.966;2024-03-08T09:36:15;102096.37;;;6.31;55.45
76137;BME280;68622;53.128;17.966;2024-03-08T09:38:41;102099.02;;;6.40;57.60
76137;BME280;68622;53.128;17.966;2024-03-08T09:41:08;102094.67;;;6.48;58.49
76137;BME280;68622;53.128;17.966;2024-03-08T09:43:37;102091.30;;;6.46;54.83
76137;BME280;68622;53.128;17.966;2024-03-08T09:46:05;102088.98;;;6.55;55.49
76137;BME280;68622;53.128;17.966;2024-03-08T09:48:33;102085.02;;;6.62;55.94
76137;BME280;68622;53.128;17.966;2024-03-08T09:51:02;102083.80;;;6.66;53.28
76137;BME280;68622;53.128;17.966;2024-03-08T09:53:30;102081.92;;;6.75;55.32
76137;BME280;68622;53.128;17.966;2024-03-08T09:55:56;102085.28;;;6.81;55.09
76137;BME280;68622;53.128;17.966;2024-03-08T09:58:23;102081.90;;;6.86;55.52
76137;BME280;68622;53.128;17.966;2024-03-08T10:00:59;102077.75;;;6.87;51.33
76137;BME280;68622;53.128;17.966;2024-03-08T10:03:30;102075.25;;;6.95;53.12
76137;BME280;68622;53.128;17.966;2024-03-08T10:05:59;102069.91;;;7.01;53.76
76137;BME280;68622;53.128;17.966;2024-03-08T10:08:29;102068.31;;;7.09;52.95
76137;BME280;68622;53.128;17.966;2024-03-08T10:10:56;102067.02;;;7.10;51.07
76137;BME280;68622;53.128;17.966;2024-03-08T10:13:26;102062.05;;;7.10;49.06
76137;BME280;68622;53.128;17.966;2024-03-08T10:15:58;102067.48;;;7.21;52.10
76137;BME280;68622;53.128;17.966;2024-03-08T10:18:24;102061.42;;;7.22;51.29
76137;BME280;68622;53.128;17.966;2024-03-08T10:21:08;102060.68;;;7.26;49.91
76137;BME280;68622;53.128;17.966;2024-03-08T10:23:37;102060.66;;;7.33;51.55
76137;BME280;68622;53.128;17.966;2024-03-08T10:26:11;102060.49;;;7.39;51.56
76137;BME280;68622;53.128;17.966;2024-03-08T10:28:45;102057.63;;;7.32;48.07
76137;BME280;68622;53.128;17.966;2024-03-08T10:31:15;102057.73;;;7.42;49.32
76137;BME280;68622;53.128;17.966;2024-03-08T10:33:42;102054.27;;;7.52;51.39
76137;BME280;68622;53.128;17.966;2024-03-08T10:36:11;102052.35;;;7.58;50.52
76137;BME280;68622;53.128;17.966;2024-03-08T10:38:41;102051.11;;;7.66;51.20
76137;BME280;68622;53.128;17.966;2024-03-08T10:41:10;102044.69;;;7.73;51.86
76137;BME280;68622;53.128;17.966;2024-03-08T10:46:30;102038.20;;;7.84;49.75
76137;BME280;68622;53.128;17.966;2024-03-08T10:49:00;102041.91;;;7.91;51.89
76137;BME280;68622;53.128;17.966;2024-03-08T10:51:30;102039.94;;;7.96;52.32
76137;BME280;68622;53.128;17.966;2024-03-08T10:53:57;102040.76;;;8.00;50.50
76137;BME280;68622;53.128;17.966;2024-03-08T10:56:25;102037.06;;;8.04;50.59
76137;BME280;68622;53.128;17.966;2024-03-08T10:58:55;102038.27;;;8.07;49.22
76137;BME280;68622;53.128;17.966;2024-03-08T11:01:22;102032.00;;;8.11;49.56
76137;BME280;68622;53.128;17.966;2024-03-08T11:03:52;102028.80;;;8.15;49.18
76137;BME280;68622;53.128;17.966;2024-03-08T11:06:30;102025.39;;;8.20;49.35
76137;BME280;68622;53.128;17.966;2024-03-08T11:08:59;102019.61;;;8.25;49.46
76137;BME280;68622;53.128;17.966;2024-03-08T11:14:02;102020.70;;;8.24;47.18
76137;BME280;68622;53.128;17.966;2024-03-08T11:19:05;102013.95;;;8.24;47.53
76137;BME280;68622;53.128;17.966;2024-03-08T11:21:37;102012.89;;;8.27;47.93
76137;BME280;68622;53.128;17.966;2024-03-08T11:24:07;102014.86;;;8.33;49.57
76137;BME280;68622;53.128;17.966;2024-03-08T11:26:38;102010.23;;;8.35;48.00
76137;BME280;68622;53.128;17.966;2024-03-08T11:32:12;102007.04;;;8.43;48.40
76137;BME280;68622;53.128;17.966;2024-03-08T11:34:42;102006.26;;;8.47;48.35
76137;BME280;68622;53.128;17.966;2024-03-08T11:37:13;102000.73;;;8.44;45.43
76137;BME280;68622;53.128;17.966;2024-03-08T11:39:48;101992.96;;;8.38;44.13
76137;BME280;68622;53.128;17.966;2024-03-08T11:42:16;101990.61;;;8.39;46.68
76137;BME280;68622;53.128;17.966;2024-03-08T11:44:45;101989.40;;;8.43;46.70
76137;BME280;68622;53.128;17.966;2024-03-08T11:47:12;101982.11;;;8.43;46.58
76137;BME280;68622;53.128;17.966;2024-03-08T11:49:39;101975.87;;;8.43;45.53
76137;BME280;68622;53.128;17.966;2024-03-08T11:52:10;101972.48;;;8.57;47.55
76137;BME280;68622;53.128;17.966;2024-03-08T11:54:43;101975.02;;;8.63;47.14
76137;BME280;68622;53.128;17.966;2024-03-08T11:57:13;101965.84;;;8.66;45.92
76137;BME280;68622;53.128;17.966;2024-03-08T11:59:40;101963.48;;;8.71;46.69
76137;BME280;68622;53.128;17.966;2024-03-08T12:02:07;101955.98;;;8.74;46.18
76137;BME280;68622;53.128;17.966;2024-03-08T12:04:36;101956.43;;;8.79;47.76
76137;BME280;68622;53.128;17.966;2024-03-08T12:07:03;101956.96;;;8.84;47.81
76137;BME280;68622;53.128;17.966;2024-03-08T12:09:36;101954.98;;;8.88;47.74
76137;BME280;68622;53.128;17.966;2024-03-08T12:12:03;101949.58;;;8.92;47.71
76137;BME280;68622;53.128;17.966;2024-03-08T12:14:30;101947.67;;;8.95;47.07
76137;BME280;68622;53.128;17.966;2024-03-08T12:16:58;101944.55;;;8.97;47.30
76137;BME280;68622;53.128;17.966;2024-03-08T12:19:25;101944.98;;;8.99;47.06
76137;BME280;68622;53.128;17.966;2024-03-08T12:21:51;101939.51;;;8.92;45.14
76137;BME280;68622;53.128;17.966;2024-03-08T12:24:18;101937.62;;;8.92;45.28
76137;BME280;68622;53.128;17.966;2024-03-08T12:26:46;101936.91;;;8.95;46.75
76137;BME280;68622;53.128;17.966;2024-03-08T12:29:16;101934.55;;;9.02;47.43
76137;BME280;68622;53.128;17.966;2024-03-08T12:31:55;101933.76;;;9.09;46.88
76137;BME280;68622;53.128;17.966;2024-03-08T12:34:24;101934.00;;;9.11;45.30
76137;BME280;68622;53.128;17.966;2024-03-08T12:36:52;101928.09;;;9.11;44.83
76137;BME280;68622;53.128;17.966;2024-03-08T12:39:21;101923.92;;;9.09;44.33
76137;BME280;68622;53.128;17.966;2024-03-08T12:41:55;101918.77;;;9.08;45.35
76137;BME280;68622;53.128;17.966;2024-03-08T12:44:23;101918.77;;;9.11;44.64
76137;BME280;68622;53.128;17.966;2024-03-08T12:46:52;101920.46;;;9.18;46.42
76137;BME280;68622;53.128;17.966;2024-03-08T12:49:20;101917.91;;;9.08;42.46
76137;BME280;68622;53.128;17.966;2024-03-08T12:51:49;101913.38;;;9.17;43.82
76137;BME280;68622;53.128;17.966;2024-03-08T12:54:16;101907.29;;;9.20;43.97
76137;BME280;68622;53.128;17.966;2024-03-08T12:56:43;101902.23;;;9.21;44.25
76137;BME280;68622;53.128;17.966;2024-03-08T12:59:09;101899.36;;;8.95;41.94
76137;BME280;68622;53.128;17.966;2024-03-08T13:01:40;101899.95;;;9.07;43.25